Terminal Aerodrome Forecast
Issued by NWS Grand Forks, ND

Home | Current Version | Previous Version | Graphics & Text | Print | Product List | Glossary On
Versions: 1 2 3 4 5 6 7 8 9 10 11 12 13 14 15
000
FTUS43 KFGF 191139
TAFFAR
TAF
KFAR 191139Z 1912/2012 19007KT P6SM SKC
     FM191700 19013G21KT P6SM FEW250
     FM200700 32011KT P6SM SCT120 BKN200=

USA.gov is the U.S. government's official web portal to all federal, state and local government web resources and services.